Time;durP1;ratioP1;P1;durP2;ratioP2;P2;SDS_P1;SDS_P2;PMS_P1;PMS_P2;Temp;Humidity;BMP_temperature;BMP_pressure;BME280_temperature;BME280_humidity;BME280_pressure;Samples;Min_cycle;Max_cycle;Signal;HPM_P1;HPM_P2
2021/11/13 00:01:49;;;;;;;61.15;35.40;;;;;;;;;;6191546;28;20066;-67
2021/11/13 00:04:51;;;;;;;62.42;36.58;;;;;;;;;;6211053;28;20207;-66
2021/11/13 00:07:53;;;;;;;60.15;35.88;;;;;;;;;;6203270;28;20196;-67
2021/11/13 00:10:55;;;;;;;58.85;34.13;;;;;;;;;;6200557;28;20065;-67
2021/11/13 00:14:01;;;;;;;58.42;35.17;;;;;;;;;;6214999;28;20069;-67
2021/11/13 00:17:03;;;;;;;63.05;35.65;;;;;;;;;;6191834;28;20646;-67
2021/11/13 00:20:06;;;;;;;54.85;33.72;;;;;;;;;;6210697;28;20180;-69
2021/11/13 00:23:09;;;;;;;56.35;33.88;;;;;;;;;;6202727;28;20256;-67
2021/11/13 00:26:10;;;;;;;56.47;35.00;;;;;;;;;;6201719;28;20144;-67
2021/11/13 00:29:11;;;;;;;56.10;33.28;;;;;;;;;;6204926;28;20509;-67
2021/11/13 00:32:13;;;;;;;51.42;32.40;;;;;;;;;;6188304;28;20405;-68
2021/11/13 00:35:14;;;;;;;57.17;34.60;;;;;;;;;;6200574;28;20049;-67
2021/11/13 00:38:20;;;;;;;53.03;32.38;;;;;;;;;;6201818;28;20045;-67
2021/11/13 00:41:21;;;;;;;54.92;32.17;;;;;;;;;;6197239;28;20650;-67
2021/11/13 00:44:22;;;;;;;53.25;32.42;;;;;;;;;;6212766;28;20045;-66
2021/11/13 00:47:24;;;;;;;59.40;32.40;;;;;;;;;;6194180;28;20502;-67
2021/11/13 00:50:25;;;;;;;54.17;31.88;;;;;;;;;;6202221;28;20798;-67
2021/11/13 00:53:28;;;;;;;52.35;31.67;;;;;;;;;;6212624;28;20089;-67
2021/11/13 00:56:30;;;;;;;52.45;32.05;;;;;;;;;;6203100;28;20109;-66
2021/11/13 00:59:31;;;;;;;56.65;32.72;;;;;;;;;;6215591;28;20042;-67
2021/11/13 01:02:33;;;;;;;48.75;30.95;;;;;;;;;;6185986;28;20400;-67
2021/11/13 01:05:34;;;;;;;52.75;30.33;;;;;;;;;;6186799;28;20119;-67
2021/11/13 01:08:37;;;;;;;47.30;29.85;;;;;;;;;;6209970;28;20080;-66
2021/11/13 01:11:38;;;;;;;51.95;31.85;;;;;;;;;;6199474;28;20537;-66
2021/11/13 01:14:42;;;;;;;49.65;31.63;;;;;;;;;;6210906;28;20504;-67
2021/11/13 01:17:44;;;;;;;50.78;32.13;;;;;;;;;;6187771;28;20046;-66
2021/11/13 01:20:45;;;;;;;52.35;32.10;;;;;;;;;;6201048;28;20104;-65
2021/11/13 01:23:48;;;;;;;49.55;30.60;;;;;;;;;;6209889;28;20153;-65
2021/11/13 01:26:50;;;;;;;48.55;30.73;;;;;;;;;;6199093;28;20694;-65
2021/11/13 01:29:51;;;;;;;53.30;32.65;;;;;;;;;;6207563;28;20058;-65
2021/11/13 01:32:53;;;;;;;53.42;31.17;;;;;;;;;;6181579;28;20509;-66
2021/11/13 01:35:54;;;;;;;46.50;29.20;;;;;;;;;;6197074;28;20096;-65
2021/11/13 01:38:57;;;;;;;48.60;29.65;;;;;;;;;;6197764;28;20057;-65
2021/11/13 01:41:59;;;;;;;46.83;30.15;;;;;;;;;;6181724;28;20058;-65
2021/11/13 01:45:00;;;;;;;50.35;29.33;;;;;;;;;;6185744;28;20057;-65
2021/11/13 01:48:02;;;;;;;50.42;29.52;;;;;;;;;;6171482;28;20054;-65
2021/11/13 01:51:14;;;;;;;54.65;29.95;;;;;;;;;;6176796;28;20039;-65
2021/11/13 01:54:17;;;;;;;46.70;28.83;;;;;;;;;;6186891;28;20050;-65
2021/11/13 01:57:22;;;;;;;47.40;29.33;;;;;;;;;;6184762;28;20050;-65
2021/11/13 02:00:25;;;;;;;50.45;28.95;;;;;;;;;;6187042;28;20061;-65
2021/11/13 02:03:27;;;;;;;47.97;28.48;;;;;;;;;;6180474;28;20160;-65
2021/11/13 02:06:28;;;;;;;51.75;28.75;;;;;;;;;;6181192;28;20042;-65
2021/11/13 02:09:31;;;;;;;51.10;28.45;;;;;;;;;;6192918;28;20046;-65
2021/11/13 02:12:33;;;;;;;49.60;28.17;;;;;;;;;;6181563;28;20133;-65
2021/11/13 02:15:34;;;;;;;45.65;28.17;;;;;;;;;;6181857;28;20201;-65
2021/11/13 02:18:36;;;;;;;46.33;27.67;;;;;;;;;;6187617;28;20038;-66
2021/11/13 02:21:39;;;;;;;49.47;28.25;;;;;;;;;;6184575;28;20046;-66
2021/11/13 02:24:44;;;;;;;43.25;27.50;;;;;;;;;;6192157;28;20406;-65
2021/11/13 02:27:45;;;;;;;44.90;27.55;;;;;;;;;;6182567;28;20050;-66
2021/11/13 02:30:47;;;;;;;47.72;27.52;;;;;;;;;;6177827;28;20046;-66
2021/11/13 02:33:48;;;;;;;48.20;28.58;;;;;;;;;;6190600;28;20137;-67
2021/11/13 02:36:51;;;;;;;46.42;28.02;;;;;;;;;;6176308;28;20149;-66
2021/11/13 02:39:52;;;;;;;46.92;26.65;;;;;;;;;;6202887;28;20781;-66
2021/11/13 02:42:54;;;;;;;43.55;25.95;;;;;;;;;;6203270;28;20053;-66
2021/11/13 02:45:56;;;;;;;41.30;25.55;;;;;;;;;;6200736;28;20698;-66
2021/11/13 02:48:58;;;;;;;45.50;26.92;;;;;;;;;;6209252;28;20038;-66
2021/11/13 02:52:01;;;;;;;42.22;25.65;;;;;;;;;;6203373;28;20046;-65
2021/11/13 02:55:02;;;;;;;41.60;25.70;;;;;;;;;;6208149;28;20512;-65
2021/11/13 02:58:03;;;;;;;40.97;25.55;;;;;;;;;;6203945;28;20104;-65
2021/11/13 03:01:06;;;;;;;44.05;25.35;;;;;;;;;;6199938;28;20140;-65
2021/11/13 03:04:08;;;;;;;43.08;25.85;;;;;;;;;;6207260;28;20095;-65
2021/11/13 03:07:10;;;;;;;44.83;27.30;;;;;;;;;;6202008;28;20041;-65
2021/11/13 03:10:13;;;;;;;45.60;26.98;;;;;;;;;;6208202;28;20521;-66
2021/11/13 03:13:14;;;;;;;44.83;26.20;;;;;;;;;;6210180;28;20137;-65
2021/11/13 03:16:16;;;;;;;42.47;25.60;;;;;;;;;;6197581;28;20454;-65
2021/11/13 03:19:18;;;;;;;41.78;25.50;;;;;;;;;;6211206;28;20046;-65
2021/11/13 03:22:20;;;;;;;41.92;25.73;;;;;;;;;;6201634;28;20092;-65
2021/11/13 03:25:23;;;;;;;42.22;25.55;;;;;;;;;;6203303;28;20460;-66
2021/11/13 03:28:26;;;;;;;43.63;26.40;;;;;;;;;;6214808;28;20061;-65
2021/11/13 03:31:28;;;;;;;44.03;26.20;;;;;;;;;;6201341;28;20037;-65
2021/11/13 03:34:33;;;;;;;44.65;26.10;;;;;;;;;;6213748;28;20134;-65
2021/11/13 03:37:35;;;;;;;44.47;26.05;;;;;;;;;;6203458;28;20428;-65
2021/11/13 03:40:38;;;;;;;48.05;27.33;;;;;;;;;;6205467;28;20045;-65
2021/11/13 03:43:39;;;;;;;46.03;26.63;;;;;;;;;;6216458;28;20137;-65
2021/11/13 03:46:40;;;;;;;45.15;27.40;;;;;;;;;;6203461;28;20305;-65
2021/11/13 03:49:42;;;;;;;42.17;26.95;;;;;;;;;;6215632;28;20491;-68
2021/11/13 03:52:45;;;;;;;47.53;26.70;;;;;;;;;;6204631;28;20045;-67
2021/11/13 03:55:46;;;;;;;42.22;25.55;;;;;;;;;;6200554;28;20042;-68
2021/11/13 03:58:47;;;;;;;48.35;26.73;;;;;;;;;;6212579;28;20054;-65
2021/11/13 04:01:49;;;;;;;47.00;27.08;;;;;;;;;;6193466;28;20054;-66
2021/11/13 04:04:50;;;;;;;44.30;26.70;;;;;;;;;;6216812;28;20076;-65
2021/11/13 04:07:53;;;;;;;47.03;27.52;;;;;;;;;;6206401;28;20111;-65
2021/11/13 04:10:54;;;;;;;43.20;26.45;;;;;;;;;;6208897;28;20060;-65
2021/11/13 04:13:56;;;;;;;45.15;26.02;;;;;;;;;;6212995;28;20620;-66
2021/11/13 04:16:57;;;;;;;44.88;26.70;;;;;;;;;;6190884;28;20444;-65
2021/11/13 04:19:59;;;;;;;47.70;25.48;;;;;;;;;;6206829;28;20074;-65
2021/11/13 04:23:01;;;;;;;47.38;27.52;;;;;;;;;;6220966;28;20045;-64
2021/11/13 04:26:03;;;;;;;46.58;26.05;;;;;;;;;;6206608;28;20104;-65
2021/11/13 04:29:04;;;;;;;45.92;26.10;;;;;;;;;;6216331;28;20049;-65
2021/11/13 04:32:06;;;;;;;44.92;26.40;;;;;;;;;;6201221;28;20534;-65
2021/11/13 04:35:17;;;;;;;46.22;25.67;;;;;;;;;;6208970;28;20181;-66
2021/11/13 04:38:20;;;;;;;46.53;25.17;;;;;;;;;;6208418;28;20557;-65
2021/11/13 04:41:21;;;;;;;44.92;25.27;;;;;;;;;;6202512;28;20049;-65
2021/11/13 04:44:23;;;;;;;52.35;26.40;;;;;;;;;;6211928;28;20045;-65
2021/11/13 04:47:24;;;;;;;48.13;26.25;;;;;;;;;;6198531;28;20065;-65
2021/11/13 04:50:27;;;;;;;52.72;27.65;;;;;;;;;;6207143;28;20046;-65
2021/11/13 04:53:29;;;;;;;52.03;27.92;;;;;;;;;;6211190;28;20054;-65
2021/11/13 04:56:31;;;;;;;59.13;30.20;;;;;;;;;;6200734;28;20069;-65
2021/11/13 04:59:32;;;;;;;58.05;29.50;;;;;;;;;;6213401;28;20131;-64
2021/11/13 05:02:34;;;;;;;56.72;28.50;;;;;;;;;;6194129;28;20046;-65
2021/11/13 05:05:35;;;;;;;55.42;30.25;;;;;;;;;;6199057;28;20041;-65
2021/11/13 05:08:38;;;;;;;55.50;29.70;;;;;;;;;;6211708;28;20054;-65
2021/11/13 05:11:39;;;;;;;70.80;31.40;;;;;;;;;;6204574;28;20038;-68
2021/11/13 05:14:41;;;;;;;56.50;31.35;;;;;;;;;;6217383;28;20091;-66
2021/11/13 05:17:42;;;;;;;55.85;30.13;;;;;;;;;;6200725;28;20041;-65
2021/11/13 05:20:44;;;;;;;58.17;31.88;;;;;;;;;;6209241;28;20613;-65
2021/11/13 05:23:46;;;;;;;60.83;33.80;;;;;;;;;;6209678;28;20046;-66
2021/11/13 05:26:48;;;;;;;59.72;31.15;;;;;;;;;;6205202;28;20120;-68
2021/11/13 05:29:49;;;;;;;58.17;30.70;;;;;;;;;;6221811;28;20137;-65
2021/11/13 05:32:51;;;;;;;56.42;28.50;;;;;;;;;;6197009;28;20046;-66
2021/11/13 05:35:53;;;;;;;54.95;29.95;;;;;;;;;;6202847;28;20081;-68
2021/11/13 05:38:56;;;;;;;49.90;28.45;;;;;;;;;;6214639;28;20045;-65
2021/11/13 05:41:57;;;;;;;51.17;29.60;;;;;;;;;;6206791;28;20132;-65
2021/11/13 05:44:58;;;;;;;52.20;27.90;;;;;;;;;;6215406;28;20081;-65
2021/11/13 05:48:00;;;;;;;49.90;26.95;;;;;;;;;;6202706;28;20046;-65
2021/11/13 05:51:01;;;;;;;47.90;27.23;;;;;;;;;;6194479;28;20061;-64
2021/11/13 05:54:04;;;;;;;47.65;25.92;;;;;;;;;;6216993;28;20109;-65
2021/11/13 05:57:06;;;;;;;42.80;25.42;;;;;;;;;;6203827;28;20056;-67
2021/11/13 06:00:09;;;;;;;40.47;24.05;;;;;;;;;;6212612;28;20050;-65
2021/11/13 06:03:10;;;;;;;37.90;22.65;;;;;;;;;;6198789;28;20041;-64
2021/11/13 06:06:12;;;;;;;36.53;23.30;;;;;;;;;;6203555;28;20050;-67
2021/11/13 06:09:14;;;;;;;38.58;23.25;;;;;;;;;;6212667;28;20072;-64
2021/11/13 06:12:16;;;;;;;38.33;23.00;;;;;;;;;;6204340;28;20045;-64
2021/11/13 06:15:17;;;;;;;36.78;22.70;;;;;;;;;;6206618;28;20042;-65
2021/11/13 06:18:19;;;;;;;35.15;23.33;;;;;;;;;;6204718;28;20053;-67
2021/11/13 06:21:20;;;;;;;37.88;22.95;;;;;;;;;;6196502;28;20191;-65
2021/11/13 06:24:23;;;;;;;35.42;22.50;;;;;;;;;;6211783;28;20088;-65
2021/11/13 06:27:24;;;;;;;34.33;21.95;;;;;;;;;;6205044;28;20046;-65
2021/11/13 06:34:14;;;;;;;37.33;22.17;;;;;;;;;;6207713;28;20764;-65
2021/11/13 06:37:15;;;;;;;37.60;23.00;;;;;;;;;;6201245;28;20064;-65
2021/11/13 06:40:18;;;;;;;36.40;22.90;;;;;;;;;;6204381;28;20092;-66
2021/11/13 06:43:20;;;;;;;38.67;24.17;;;;;;;;;;6216291;28;20630;-64
2021/11/13 06:46:21;;;;;;;41.50;23.70;;;;;;;;;;6212252;28;20038;-65
2021/11/13 06:49:23;;;;;;;37.80;23.30;;;;;;;;;;6210076;28;20285;-65
2021/11/13 06:52:24;;;;;;;41.13;24.08;;;;;;;;;;6204337;28;20129;-65
2021/11/13 06:55:27;;;;;;;40.92;25.13;;;;;;;;;;6211368;28;20124;-64
2021/11/13 06:58:28;;;;;;;47.03;27.23;;;;;;;;;;6215582;28;20048;-65
2021/11/13 07:01:29;;;;;;;50.80;27.60;;;;;;;;;;6200748;28;20073;-66
2021/11/13 07:04:31;;;;;;;47.08;26.65;;;;;;;;;;6216395;28;20088;-64
2021/11/13 07:07:33;;;;;;;49.50;27.17;;;;;;;;;;6207254;28;20085;-65
2021/11/13 07:10:36;;;;;;;46.60;27.63;;;;;;;;;;6204006;28;20042;-65
2021/11/13 07:13:37;;;;;;;47.45;27.00;;;;;;;;;;6214380;28;20045;-65
2021/11/13 07:16:38;;;;;;;50.22;27.60;;;;;;;;;;6198681;28;20127;-65
2021/11/13 07:19:41;;;;;;;47.25;26.90;;;;;;;;;;6212434;28;20079;-65
2021/11/13 07:22:45;;;;;;;53.10;27.60;;;;;;;;;;6201791;28;20034;-65
2021/11/13 07:25:46;;;;;;;;;;;;;;;;;;6206366;28;20046;-64
2021/11/13 07:28:51;;;;;;;50.53;29.13;;;;;;;;;;6211762;28;20061;-66
2021/11/13 07:31:53;;;;;;;54.88;29.17;;;;;;;;;;6199100;28;20042;-67
2021/11/13 07:34:54;;;;;;;53.17;28.27;;;;;;;;;;6212296;28;20184;-66
2021/11/13 07:37:56;;;;;;;54.10;29.50;;;;;;;;;;6199217;28;20100;-66
2021/11/13 07:40:57;;;;;;;56.33;29.75;;;;;;;;;;6202690;28;20049;-66
2021/11/13 07:44:00;;;;;;;57.30;29.42;;;;;;;;;;6214755;28;20196;-66
2021/11/13 07:47:01;;;;;;;53.97;27.98;;;;;;;;;;6201277;28;20075;-66
2021/11/13 07:50:03;;;;;;;54.30;29.92;;;;;;;;;;6207895;28;20486;-66
2021/11/13 07:53:05;;;;;;;61.50;30.27;;;;;;;;;;6200853;28;20121;-65
2021/11/13 07:56:06;;;;;;;56.80;28.33;;;;;;;;;;6203474;28;20591;-66
2021/11/13 07:59:09;;;;;;;56.45;29.17;;;;;;;;;;6210963;28;20416;-67
2021/11/13 08:02:11;;;;;;;53.22;28.40;;;;;;;;;;6196848;28;20157;-65
2021/11/13 08:05:14;;;;;;;53.47;28.73;;;;;;;;;;6203337;28;20095;-65
2021/11/13 08:08:15;;;;;;;62.45;30.08;;;;;;;;;;6206252;28;20052;-65
2021/11/13 08:11:16;;;;;;;58.13;29.00;;;;;;;;;;6203968;28;20184;-64
2021/11/13 08:14:19;;;;;;;65.53;30.65;;;;;;;;;;6213347;28;20061;-65
2021/11/13 08:17:21;;;;;;;63.42;29.13;;;;;;;;;;6197249;28;20041;-64
2021/11/13 08:20:22;;;;;;;64.93;30.98;;;;;;;;;;6198823;28;20119;-66
2021/11/13 08:23:23;;;;;;;67.25;29.88;;;;;;;;;;6208491;28;20418;-66
2021/11/13 08:26:25;;;;;;;68.93;31.42;;;;;;;;;;6202524;28;20050;-64
2021/11/13 08:29:27;;;;;;;66.15;30.20;;;;;;;;;;6210022;28;20042;-66
2021/11/13 08:32:29;;;;;;;63.90;30.65;;;;;;;;;;6195930;28;20050;-66
2021/11/13 08:35:30;;;;;;;62.80;29.63;;;;;;;;;;6198150;28;20042;-65
2021/11/13 08:38:32;;;;;;;60.72;30.90;;;;;;;;;;6207658;28;20095;-65
2021/11/13 08:41:33;;;;;;;59.55;28.75;;;;;;;;;;6200085;28;20046;-66
2021/11/13 08:44:36;;;;;;;63.92;29.90;;;;;;;;;;6207463;28;20516;-65
2021/11/13 08:47:37;;;;;;;63.13;29.98;;;;;;;;;;6193234;28;20141;-63
2021/11/13 08:50:39;;;;;;;61.28;27.35;;;;;;;;;;6198977;28;20099;-67
2021/11/13 08:53:40;;;;;;;59.70;29.13;;;;;;;;;;6213894;28;20088;-66
2021/11/13 08:56:42;;;;;;;60.17;28.27;;;;;;;;;;6200674;28;20148;-66
2021/11/13 08:59:45;;;;;;;58.35;27.77;;;;;;;;;;6210354;28;20120;-65
2021/11/13 09:02:46;;;;;;;59.87;28.57;;;;;;;;;;6193935;28;20038;-65
2021/11/13 09:05:48;;;;;;;59.45;28.38;;;;;;;;;;6200425;28;20144;-65
2021/11/13 09:08:51;;;;;;;59.70;27.80;;;;;;;;;;6216409;28;20407;-65
2021/11/13 09:11:53;;;;;;;60.72;28.73;;;;;;;;;;6202468;28;20053;-65
2021/11/13 09:14:57;;;;;;;59.20;28.40;;;;;;;;;;6213951;28;20046;-65
2021/11/13 09:17:59;;;;;;;53.85;27.13;;;;;;;;;;6195173;28;20050;-65
2021/11/13 09:21:00;;;;;;;52.97;26.27;;;;;;;;;;6197792;28;20045;-65
2021/11/13 09:24:02;;;;;;;50.05;26.48;;;;;;;;;;6208727;28;20489;-66
2021/11/13 09:27:04;;;;;;;49.92;24.40;;;;;;;;;;6201545;28;20188;-65
2021/11/13 09:30:09;;;;;;;42.45;22.58;;;;;;;;;;6213376;28;20072;-66
2021/11/13 09:33:11;;;;;;;40.00;23.05;;;;;;;;;;6204248;28;20735;-65
2021/11/13 09:36:12;;;;;;;44.80;24.00;;;;;;;;;;6208784;28;20046;-65
2021/11/13 09:39:14;;;;;;;40.50;22.88;;;;;;;;;;6215048;28;20045;-65
2021/11/13 09:42:16;;;;;;;41.67;23.05;;;;;;;;;;6199113;28;20050;-65
2021/11/13 09:45:18;;;;;;;42.58;22.80;;;;;;;;;;6203847;28;20123;-66
2021/11/13 09:48:20;;;;;;;41.53;23.88;;;;;;;;;;6203480;28;20050;-66
2021/11/13 09:51:22;;;;;;;42.78;23.70;;;;;;;;;;6200228;28;20081;-65
2021/11/13 09:54:24;;;;;;;38.60;22.40;;;;;;;;;;6212312;28;20127;-65
2021/11/13 09:57:26;;;;;;;39.25;21.90;;;;;;;;;;6203760;28;20045;-65
2021/11/13 10:00:30;;;;;;;36.55;22.95;;;;;;;;;;6204138;28;20084;-66
2021/11/13 10:03:31;;;;;;;;;;;;;;;;;;6213243;28;20196;-65
2021/11/13 10:06:32;;;;;;;41.53;24.02;;;;;;;;;;6205664;28;19929;-66
2021/11/13 10:09:34;;;;;;;43.00;24.23;;;;;;;;;;6213954;28;20160;-65
2021/11/13 10:12:36;;;;;;;39.08;22.67;;;;;;;;;;6205559;28;20050;-65
2021/11/13 10:15:40;;;;;;;39.75;24.17;;;;;;;;;;6200770;28;20609;-66
2021/11/13 10:18:43;;;;;;;45.17;24.67;;;;;;;;;;6210414;28;20065;-65
2021/11/13 10:21:46;;;;;;;45.80;24.90;;;;;;;;;;6205487;28;20053;-65
2021/11/13 10:24:48;;;;;;;43.83;24.48;;;;;;;;;;6213630;28;21185;-64
2021/11/13 10:28:04;;;;;;;41.35;23.90;;;;;;;;;;6204389;28;20124;-65
2021/11/13 10:31:09;;;;;;;44.30;25.90;;;;;;;;;;6198729;28;20124;-65
2021/11/13 10:34:10;;;;;;;;;;;;;;;;;;6211289;28;20136;-65
2021/11/13 10:37:12;;;;;;;42.85;24.02;;;;;;;;;;6201454;28;19921;-65
2021/11/13 10:40:14;;;;;;;41.13;24.23;;;;;;;;;;6205861;28;20136;-66
2021/11/13 10:43:15;;;;;;;43.00;25.83;;;;;;;;;;6208026;28;20052;-68
2021/11/13 10:46:18;;;;;;;42.13;25.25;;;;;;;;;;6205548;28;20066;-65
2021/11/13 10:49:20;;;;;;;45.53;26.88;;;;;;;;;;6210024;28;20462;-66
2021/11/13 10:52:22;;;;;;;44.25;24.88;;;;;;;;;;6199848;28;20140;-66
2021/11/13 10:55:24;;;;;;;38.72;24.27;;;;;;;;;;6204459;28;20056;-66
2021/11/13 10:58:27;;;;;;;40.23;23.67;;;;;;;;;;6211001;28;20418;-66
2021/11/13 11:01:34;;;;;;;41.55;23.92;;;;;;;;;;6196838;28;20068;-65
2021/11/13 11:04:36;;;;;;;41.00;24.88;;;;;;;;;;6209698;28;20135;-65
2021/11/13 11:07:38;;;;;;;38.03;24.20;;;;;;;;;;6202424;28;20092;-65
2021/11/13 11:10:39;;;;;;;43.53;24.02;;;;;;;;;;6204906;28;20054;-65
2021/11/13 11:13:47;;;;;;;41.10;26.77;;;;;;;;;;6213688;28;20135;-66
2021/11/13 11:16:52;;;;;;;41.90;26.00;;;;;;;;;;6196635;28;20265;-66
2021/11/13 11:19:55;;;;;;;40.00;27.27;;;;;;;;;;6209746;28;20060;-66
2021/11/13 11:22:57;;;;;;;41.55;26.33;;;;;;;;;;6199824;28;20046;-66
2021/11/13 11:26:13;;;;;;;41.70;27.20;;;;;;;;;;6203850;28;20393;-65
2021/11/13 11:29:14;;;;;;;42.90;27.73;;;;;;;;;;6210583;28;20108;-66
2021/11/13 11:32:20;;;;;;;39.97;27.15;;;;;;;;;;6197748;28;20153;-66
2021/11/13 11:35:22;;;;;;;42.42;28.83;;;;;;;;;;6201348;28;20059;-67
2021/11/13 11:38:23;;;;;;;45.78;28.35;;;;;;;;;;6212354;28;20532;-66
2021/11/13 11:41:25;;;;;;;47.65;27.55;;;;;;;;;;6202356;28;20420;-66
2021/11/13 11:44:26;;;;;;;48.20;28.40;;;;;;;;;;6218296;28;20042;-66
2021/11/13 11:47:30;;;;;;;45.63;29.48;;;;;;;;;;6193309;28;20050;-65
2021/11/13 11:50:33;;;;;;;50.92;29.35;;;;;;;;;;6199551;28;20132;-66
2021/11/13 11:53:35;;;;;;;47.55;29.40;;;;;;;;;;6211177;28;20974;-65
2021/11/13 11:56:37;;;;;;;45.63;30.58;;;;;;;;;;6201455;28;20187;-65
2021/11/13 11:59:39;;;;;;;48.58;32.20;;;;;;;;;;6210812;28;20041;-66
2021/11/13 12:02:43;;;;;;;49.70;34.10;;;;;;;;;;6193235;28;20076;-65
2021/11/13 12:05:49;;;;;;;50.17;34.53;;;;;;;;;;6196967;28;20714;-64
2021/11/13 12:09:02;;;;;;;48.53;34.47;;;;;;;;;;6210927;28;20184;-66
2021/11/13 12:12:13;;;;;;;54.17;34.55;;;;;;;;;;6202264;28;20050;-66
2021/11/13 12:15:16;;;;;;;55.22;35.17;;;;;;;;;;6204866;28;20042;-70
2021/11/13 12:18:20;;;;;;;54.45;35.22;;;;;;;;;;6207943;28;20049;-67
2021/11/13 12:21:28;;;;;;;56.40;35.92;;;;;;;;;;6200360;28;20052;-67
2021/11/13 12:24:29;;;;;;;59.35;36.33;;;;;;;;;;6206693;28;20042;-64
2021/11/13 12:27:30;;;;;;;57.20;35.70;;;;;;;;;;6198362;28;20072;-66
2021/11/13 12:30:42;;;;;;;59.40;37.28;;;;;;;;;;6199443;28;20097;-67
2021/11/13 12:34:05;;;;;;;54.50;36.03;;;;;;;;;;6210699;28;20436;-65
2021/11/13 12:37:08;;;;;;;59.77;37.33;;;;;;;;;;6203929;28;20064;-66
2021/11/13 12:40:10;;;;;;;59.35;36.65;;;;;;;;;;6207718;28;20066;-67
2021/11/13 12:43:11;;;;;;;59.65;36.80;;;;;;;;;;6193060;28;20091;-65
2021/11/13 12:46:23;;;;;;;61.70;37.20;;;;;;;;;;6202559;28;20137;-67
2021/11/13 12:49:43;;;;;;;64.13;37.45;;;;;;;;;;6208565;28;20046;-65
2021/11/13 12:52:48;;;;;;;63.28;38.80;;;;;;;;;;6203278;28;20076;-64
2021/11/13 12:55:50;;;;;;;62.80;36.58;;;;;;;;;;6197338;28;20079;-66
2021/11/13 12:58:58;;;;;;;60.63;37.45;;;;;;;;;;6208161;28;20081;-65
2021/11/13 13:02:01;;;;;;;61.03;37.38;;;;;;;;;;6196334;28;20041;-65
2021/11/13 13:05:05;;;;;;;58.70;36.60;;;;;;;;;;6211380;28;20093;-65
2021/11/13 13:08:06;;;;;;;62.10;36.50;;;;;;;;;;6204574;28;20125;-65
2021/11/13 13:11:09;;;;;;;60.13;37.13;;;;;;;;;;6202621;28;20042;-65
2021/11/13 13:14:10;;;;;;;60.63;35.30;;;;;;;;;;6210334;28;20148;-65
2021/11/13 13:17:20;;;;;;;64.32;37.67;;;;;;;;;;6197382;28;20045;-65
2021/11/13 13:20:27;;;;;;;61.35;36.75;;;;;;;;;;6186322;28;20046;-65
2021/11/13 13:23:29;;;;;;;59.30;36.75;;;;;;;;;;6207999;28;20050;-65
2021/11/13 13:26:30;;;;;;;62.22;37.10;;;;;;;;;;6200612;28;20108;-65
2021/11/13 13:29:32;;;;;;;61.55;36.75;;;;;;;;;;6218650;28;20433;-64
2021/11/13 13:32:34;;;;;;;64.18;36.78;;;;;;;;;;6198526;28;20978;-65
2021/11/13 13:35:37;;;;;;;61.92;37.17;;;;;;;;;;6202513;28;20045;-65
2021/11/13 13:38:38;;;;;;;64.78;37.05;;;;;;;;;;6211869;28;20046;-65
2021/11/13 13:41:40;;;;;;;65.80;37.38;;;;;;;;;;6202994;28;20355;-65
2021/11/13 13:44:42;;;;;;;68.65;37.67;;;;;;;;;;6216892;28;20233;-65
2021/11/13 13:47:45;;;;;;;65.28;38.22;;;;;;;;;;6194222;28;20050;-65
2021/11/13 13:50:49;;;;;;;66.18;38.00;;;;;;;;;;6202242;28;20076;-65
2021/11/13 13:53:53;;;;;;;70.95;39.50;;;;;;;;;;6215183;28;20088;-65
2021/11/13 13:56:55;;;;;;;;;;;;;;;;;;6206082;28;20084;-64
2021/11/13 13:59:58;;;;;;;64.68;38.13;;;;;;;;;;6220000;28;19977;-65
2021/11/13 14:03:00;;;;;;;68.68;38.72;;;;;;;;;;6197901;28;20153;-65
2021/11/13 14:06:03;;;;;;;65.78;38.55;;;;;;;;;;6199069;28;20054;-67
2021/11/13 14:09:05;;;;;;;67.22;36.40;;;;;;;;;;6209532;28;20127;-67
2021/11/13 14:12:06;;;;;;;73.38;39.60;;;;;;;;;;6203096;28;20089;-67
2021/11/13 14:15:10;;;;;;;70.82;41.35;;;;;;;;;;6210798;28;20096;-67
2021/11/13 14:18:12;;;;;;;68.05;39.20;;;;;;;;;;6205384;28;20140;-66
2021/11/13 14:21:22;;;;;;;71.22;38.97;;;;;;;;;;6201321;28;20046;-66
2021/11/13 14:24:24;;;;;;;71.53;38.67;;;;;;;;;;6213016;28;20569;-67
2021/11/13 14:27:25;;;;;;;71.18;38.22;;;;;;;;;;6198762;28;20046;-65
2021/11/13 14:30:35;;;;;;;70.57;39.65;;;;;;;;;;6198892;28;20075;-67
2021/11/13 14:33:36;;;;;;;68.65;39.20;;;;;;;;;;6205897;28;20122;-65
2021/11/13 14:36:41;;;;;;;68.50;38.95;;;;;;;;;;6206004;28;20073;-66
2021/11/13 14:39:44;;;;;;;66.90;38.45;;;;;;;;;;6212583;28;20053;-66
2021/11/13 14:42:45;;;;;;;67.53;39.03;;;;;;;;;;6203499;28;20046;-65
2021/11/13 14:45:47;;;;;;;68.70;39.58;;;;;;;;;;6201753;28;20053;-66
2021/11/13 14:48:48;;;;;;;70.70;40.40;;;;;;;;;;6211244;28;20784;-67
2021/11/13 14:51:52;;;;;;;72.95;41.85;;;;;;;;;;6198001;28;20057;-67
2021/11/13 14:54:54;;;;;;;67.90;38.42;;;;;;;;;;6211187;28;20046;-67
2021/11/13 14:57:57;;;;;;;80.47;41.60;;;;;;;;;;6199711;28;20595;-67
2021/11/13 15:00:59;;;;;;;74.40;40.90;;;;;;;;;;6193081;28;20050;-64
2021/11/13 15:04:05;;;;;;;80.45;42.05;;;;;;;;;;6206080;28;20034;-67
2021/11/13 15:07:08;;;;;;;73.82;41.53;;;;;;;;;;6201516;28;20192;-66
2021/11/13 15:10:11;;;;;;;77.65;39.75;;;;;;;;;;6207119;28;20054;-67
2021/11/13 15:13:13;;;;;;;81.60;41.92;;;;;;;;;;6207382;28;20050;-67
2021/11/13 15:16:16;;;;;;;88.57;43.13;;;;;;;;;;6199318;28;20188;-67
2021/11/13 15:19:18;;;;;;;79.05;41.67;;;;;;;;;;6208241;28;20058;-66
2021/11/13 15:22:25;;;;;;;82.53;41.58;;;;;;;;;;6198023;28;20185;-66
2021/11/13 15:25:27;;;;;;;77.75;40.60;;;;;;;;;;6204325;28;20922;-67
2021/11/13 15:28:30;;;;;;;79.18;40.08;;;;;;;;;;6212894;28;20088;-67
2021/11/13 15:31:33;;;;;;;79.70;39.57;;;;;;;;;;6192022;28;20446;-67
2021/11/13 15:34:37;;;;;;;74.43;38.63;;;;;;;;;;6211012;28;20042;-66
2021/11/13 15:37:40;;;;;;;74.00;39.35;;;;;;;;;;6199716;28;20527;-66
2021/11/13 15:40:41;;;;;;;72.55;38.53;;;;;;;;;;6203088;28;20108;-66
2021/11/13 15:43:48;;;;;;;68.43;37.88;;;;;;;;;;6213047;28;20060;-66
2021/11/13 15:46:49;;;;;;;67.78;36.33;;;;;;;;;;6197896;28;20099;-67
2021/11/13 15:49:55;;;;;;;67.50;37.08;;;;;;;;;;6214129;28;20124;-67
2021/11/13 15:52:57;;;;;;;70.38;38.42;;;;;;;;;;6200778;28;20136;-64
2021/11/13 15:55:59;;;;;;;66.13;38.05;;;;;;;;;;6202816;28;20136;-67
2021/11/13 15:59:03;;;;;;;63.90;36.40;;;;;;;;;;6215106;28;20128;-65
2021/11/13 16:02:05;;;;;;;62.08;36.13;;;;;;;;;;6193493;28;20057;-65
2021/11/13 16:05:06;;;;;;;65.32;35.75;;;;;;;;;;6204860;28;20050;-68
2021/11/13 16:08:09;;;;;;;64.05;35.38;;;;;;;;;;6207248;28;20050;-66
2021/11/13 16:11:11;;;;;;;61.83;34.92;;;;;;;;;;6199776;28;20442;-67
2021/11/13 16:14:12;;;;;;;69.32;37.72;;;;;;;;;;6212318;28;20061;-66
2021/11/13 16:17:14;;;;;;;75.03;39.72;;;;;;;;;;6192916;28;20157;-67
2021/11/13 16:20:16;;;;;;;82.13;42.55;;;;;;;;;;6200944;28;20830;-67
2021/11/13 16:23:19;;;;;;;84.47;43.65;;;;;;;;;;6208518;28;20042;-66
2021/11/13 16:26:21;;;;;;;81.53;42.22;;;;;;;;;;6204616;28;20041;-66
2021/11/13 16:29:22;;;;;;;88.25;43.13;;;;;;;;;;6213639;28;20061;-66
2021/11/13 16:32:24;;;;;;;100.88;47.03;;;;;;;;;;6192652;28;20062;-66
2021/11/13 16:35:25;;;;;;;110.07;50.67;;;;;;;;;;6199015;28;20276;-64
2021/11/13 16:38:28;;;;;;;99.75;50.03;;;;;;;;;;6207279;28;20107;-66
2021/11/13 16:41:30;;;;;;;103.75;48.05;;;;;;;;;;6198765;28;20148;-66
2021/11/13 16:44:31;;;;;;;111.55;52.80;;;;;;;;;;6210324;28;20042;-66
2021/11/13 16:47:33;;;;;;;123.60;52.78;;;;;;;;;;6189340;28;20091;-66
2021/11/13 16:50:36;;;;;;;112.25;53.15;;;;;;;;;;6200364;28;20073;-66
2021/11/13 16:53:39;;;;;;;99.88;51.60;;;;;;;;;;6221025;28;20445;-66
2021/11/13 16:56:41;;;;;;;103.72;49.83;;;;;;;;;;6200869;28;20052;-67
2021/11/13 16:59:42;;;;;;;102.80;49.42;;;;;;;;;;6216853;28;20133;-66
2021/11/13 17:02:44;;;;;;;99.88;49.22;;;;;;;;;;6196556;28;20045;-66
2021/11/13 17:05:46;;;;;;;100.45;47.70;;;;;;;;;;6206302;28;20107;-65
2021/11/13 17:08:53;;;;;;;108.15;49.20;;;;;;;;;;6215878;28;20120;-68
2021/11/13 17:11:54;;;;;;;107.93;48.75;;;;;;;;;;6209984;28;20497;-65
2021/11/13 17:14:58;;;;;;;102.00;45.70;;;;;;;;;;6218666;28;20133;-68
2021/11/13 17:17:59;;;;;;;114.22;49.60;;;;;;;;;;6198497;28;20038;-65
2021/11/13 17:21:01;;;;;;;91.72;44.53;;;;;;;;;;6203555;28;20041;-66
2021/11/13 17:24:04;;;;;;;91.80;43.65;;;;;;;;;;6218649;28;20096;-65
2021/11/13 17:27:06;;;;;;;83.55;40.03;;;;;;;;;;6210163;28;20057;-65
2021/11/13 17:30:09;;;;;;;80.80;42.28;;;;;;;;;;6214404;28;20124;-66
2021/11/13 17:33:12;;;;;;;82.28;41.63;;;;;;;;;;6204132;28;20087;-65
2021/11/13 17:36:13;;;;;;;77.90;40.20;;;;;;;;;;6205642;28;20126;-65
2021/11/13 17:39:16;;;;;;;77.75;39.03;;;;;;;;;;6216616;28;20181;-65
2021/11/13 17:42:17;;;;;;;81.88;40.05;;;;;;;;;;6207157;28;20053;-64
2021/11/13 17:45:20;;;;;;;78.70;40.60;;;;;;;;;;6209209;28;20046;-65
2021/11/13 17:48:22;;;;;;;87.18;42.80;;;;;;;;;;6209054;28;20140;-65